Portada
METAR-TAF:

METAR-TAF

Aeropuertos :

Sabadell, España

Aeropuerto de Sabadell

latitud: 41-31N, longitud: 002-06E, altitud: 250 m

Observación

El informe se hizo hace 21 minutos, a las 18:00 UTC
Viento 3 kt del sur-sureste, variando entre este-sureste y sur
Temperatura 22°C
Humedad 78%
Presión 1019 hPa
Visibilidad 10 km o más

METAR: LELL 231800Z AUTO 15003KT 110V190 9999 BKN032/// BKN038/// 22/18 Q1019

Hora: 20:21 (18:21 UTC)

Pronóstico

El informe se hizo hace 4 horas y 21 minutos, a las 14:00 UTC
Pronóstico válido del 23 a las 15 UTC al 24 a las 15 UTC
Viento 3 kt con dirección variable
Visibilidad 10 km o más
Escasas nubes a una altura de 2000 ft
Cielo nuboso a una altura de 3000 ft
Probabilidad 30% :
Temporalmente
del 23 a las 15 UTC al 23 a las 18 UTC
Nubes dispersas a una altura de 3000 ft, Cumulonimbus.
tormenta, lluvia

TAF: LELL 231400Z 2315/2415 VRB03KT 9999 FEW020 BKN030 TX28/2414Z TN15/2406Z PROB30 TEMPO 2315/2318 TSRA SCT030CB

Observaciones y pronósticos meteorológicos de más de 4000 aeropuertos (mensajes METAR y TAF).

Los puntos amarillos y rojos representan las estaciones disponibles.

Ponga el ratón en el punto deseado para ver el nombre de la estación.

Haga clic para ver las observaciones y los pronósticos meteorológicos.

Para cambiar el mapa : haga clic en los botones verdes con una cruz de color negro para hacer un zoom, en el botón verde con un guión para alejar o en las flechas verdes para mapas adyacentes.


METAR-TAF: